sensor_id;sensor_type;location;lat;lon;timestamp;P1;durP1;ratioP1;P2;durP2;ratioP2
37425;SDS011;23285;50.180;7.036;2023-02-27T00:01:39;3.87;;;1.80;;
37425;SDS011;23285;50.180;7.036;2023-02-27T00:04:26;4.10;;;1.77;;
37425;SDS011;23285;50.180;7.036;2023-02-27T00:07:13;3.27;;;1.80;;
37425;SDS011;23285;50.180;7.036;2023-02-27T00:09:59;2.30;;;1.77;;
37425;SDS011;23285;50.180;7.036;2023-02-27T00:12:46;3.50;;;1.90;;
37425;SDS011;23285;50.180;7.036;2023-02-27T00:15:32;3.33;;;1.77;;
37425;SDS011;23285;50.180;7.036;2023-02-27T00:18:20;1.83;;;1.60;;
37425;SDS011;23285;50.180;7.036;2023-02-27T00:21:07;3.77;;;1.77;;
37425;SDS011;23285;50.180;7.036;2023-02-27T00:23:55;2.40;;;1.73;;
37425;SDS011;23285;50.180;7.036;2023-02-27T00:26:41;2.63;;;1.63;;
37425;SDS011;23285;50.180;7.036;2023-02-27T00:29:28;1.73;;;1.40;;
37425;SDS011;23285;50.180;7.036;2023-02-27T00:32:14;5.63;;;1.87;;
37425;SDS011;23285;50.180;7.036;2023-02-27T00:35:00;2.10;;;1.70;;
37425;SDS011;23285;50.180;7.036;2023-02-27T00:37:47;2.90;;;1.40;;
37425;SDS011;23285;50.180;7.036;2023-02-27T00:40:35;5.70;;;2.27;;
37425;SDS011;23285;50.180;7.036;2023-02-27T00:43:21;7.73;;;2.00;;
37425;SDS011;23285;50.180;7.036;2023-02-27T00:46:07;2.93;;;1.73;;
37425;SDS011;23285;50.180;7.036;2023-02-27T00:48:54;2.57;;;1.87;;
37425;SDS011;23285;50.180;7.036;2023-02-27T00:51:41;3.13;;;1.80;;
37425;SDS011;23285;50.180;7.036;2023-02-27T00:54:28;5.13;;;1.60;;
37425;SDS011;23285;50.180;7.036;2023-02-27T00:57:16;2.07;;;1.50;;
37425;SDS011;23285;50.180;7.036;2023-02-27T01:00:03;3.53;;;1.60;;
37425;SDS011;23285;50.180;7.036;2023-02-27T01:02:50;3.33;;;1.60;;
37425;SDS011;23285;50.180;7.036;2023-02-27T01:05:37;2.03;;;1.67;;
37425;SDS011;23285;50.180;7.036;2023-02-27T01:08:23;2.77;;;1.77;;
37425;SDS011;23285;50.180;7.036;2023-02-27T01:11:09;4.37;;;1.60;;
37425;SDS011;23285;50.180;7.036;2023-02-27T01:13:57;3.67;;;1.87;;
37425;SDS011;23285;50.180;7.036;2023-02-27T01:16:43;3.50;;;1.80;;
37425;SDS011;23285;50.180;7.036;2023-02-27T01:19:30;2.40;;;1.70;;
37425;SDS011;23285;50.180;7.036;2023-02-27T01:22:16;5.07;;;1.90;;
37425;SDS011;23285;50.180;7.036;2023-02-27T01:25:02;5.43;;;1.60;;
37425;SDS011;23285;50.180;7.036;2023-02-27T01:27:49;2.50;;;1.57;;
37425;SDS011;23285;50.180;7.036;2023-02-27T01:30:37;3.00;;;1.90;;
37425;SDS011;23285;50.180;7.036;2023-02-27T01:33:24;3.07;;;1.97;;
37425;SDS011;23285;50.180;7.036;2023-02-27T01:36:11;2.17;;;1.67;;
37425;SDS011;23285;50.180;7.036;2023-02-27T01:38:57;4.40;;;1.70;;
37425;SDS011;23285;50.180;7.036;2023-02-27T01:41:43;1.90;;;1.60;;
37425;SDS011;23285;50.180;7.036;2023-02-27T01:44:30;2.23;;;1.60;;
37425;SDS011;23285;50.180;7.036;2023-02-27T01:47:18;1.80;;;1.50;;
37425;SDS011;23285;50.180;7.036;2023-02-27T01:50:05;2.37;;;1.80;;
37425;SDS011;23285;50.180;7.036;2023-02-27T01:52:53;2.80;;;1.73;;
37425;SDS011;23285;50.180;7.036;2023-02-27T01:55:41;3.90;;;1.60;;
37425;SDS011;23285;50.180;7.036;2023-02-27T01:58:27;2.03;;;1.70;;
37425;SDS011;23285;50.180;7.036;2023-02-27T02:01:14;4.33;;;1.80;;
37425;SDS011;23285;50.180;7.036;2023-02-27T02:04:05;4.30;;;1.90;;
37425;SDS011;23285;50.180;7.036;2023-02-27T02:06:59;6.80;;;2.10;;
37425;SDS011;23285;50.180;7.036;2023-02-27T02:09:48;3.17;;;1.70;;
37425;SDS011;23285;50.180;7.036;2023-02-27T02:12:35;3.23;;;1.70;;
37425;SDS011;23285;50.180;7.036;2023-02-27T02:15:24;3.20;;;2.10;;
37425;SDS011;23285;50.180;7.036;2023-02-27T02:18:18;2.33;;;1.50;;
37425;SDS011;23285;50.180;7.036;2023-02-27T02:24:22;2.23;;;1.80;;
37425;SDS011;23285;50.180;7.036;2023-02-27T02:27:17;3.10;;;1.73;;
37425;SDS011;23285;50.180;7.036;2023-02-27T02:30:26;3.33;;;1.70;;
37425;SDS011;23285;50.180;7.036;2023-02-27T02:33:35;4.23;;;1.80;;
37425;SDS011;23285;50.180;7.036;2023-02-27T02:37:10;1.80;;;1.70;;
37425;SDS011;23285;50.180;7.036;2023-02-27T02:40:27;2.10;;;1.70;;
37425;SDS011;23285;50.180;7.036;2023-02-27T02:43:23;4.67;;;2.00;;
37425;SDS011;23285;50.180;7.036;2023-02-27T02:46:13;1.70;;;1.60;;
37425;SDS011;23285;50.180;7.036;2023-02-27T02:49:05;3.57;;;1.83;;
37425;SDS011;23285;50.180;7.036;2023-02-27T02:52:00;3.00;;;1.87;;
37425;SDS011;23285;50.180;7.036;2023-02-27T02:54:51;3.50;;;1.90;;
37425;SDS011;23285;50.180;7.036;2023-02-27T02:57:46;2.70;;;2.00;;
37425;SDS011;23285;50.180;7.036;2023-02-27T03:00:38;2.87;;;1.90;;
37425;SDS011;23285;50.180;7.036;2023-02-27T03:03:30;2.37;;;1.80;;
37425;SDS011;23285;50.180;7.036;2023-02-27T03:06:19;3.43;;;1.60;;
37425;SDS011;23285;50.180;7.036;2023-02-27T03:09:13;5.73;;;2.33;;
37425;SDS011;23285;50.180;7.036;2023-02-27T03:12:04;1.93;;;1.60;;
37425;SDS011;23285;50.180;7.036;2023-02-27T03:14:57;4.90;;;2.27;;
37425;SDS011;23285;50.180;7.036;2023-02-27T03:17:49;5.77;;;1.80;;
37425;SDS011;23285;50.180;7.036;2023-02-27T03:20:41;2.77;;;1.80;;
37425;SDS011;23285;50.180;7.036;2023-02-27T03:23:33;2.63;;;1.93;;
37425;SDS011;23285;50.180;7.036;2023-02-27T03:26:27;2.90;;;1.67;;
37425;SDS011;23285;50.180;7.036;2023-02-27T03:29:21;2.20;;;1.70;;
37425;SDS011;23285;50.180;7.036;2023-02-27T03:32:11;3.43;;;1.57;;
37425;SDS011;23285;50.180;7.036;2023-02-27T03:35:02;3.37;;;2.00;;
37425;SDS011;23285;50.180;7.036;2023-02-27T03:37:53;4.17;;;2.00;;
37425;SDS011;23285;50.180;7.036;2023-02-27T03:40:42;4.60;;;2.20;;
37425;SDS011;23285;50.180;7.036;2023-02-27T03:43:44;2.73;;;1.60;;
37425;SDS011;23285;50.180;7.036;2023-02-27T03:46:35;4.03;;;1.83;;
37425;SDS011;23285;50.180;7.036;2023-02-27T03:49:24;3.83;;;1.63;;
37425;SDS011;23285;50.180;7.036;2023-02-27T03:52:11;2.07;;;1.47;;
37425;SDS011;23285;50.180;7.036;2023-02-27T03:54:59;2.37;;;1.73;;
37425;SDS011;23285;50.180;7.036;2023-02-27T03:57:47;2.37;;;1.70;;
37425;SDS011;23285;50.180;7.036;2023-02-27T04:00:36;2.93;;;1.60;;
37425;SDS011;23285;50.180;7.036;2023-02-27T04:03:23;2.30;;;1.80;;
37425;SDS011;23285;50.180;7.036;2023-02-27T04:06:12;1.90;;;1.70;;
37425;SDS011;23285;50.180;7.036;2023-02-27T04:09:17;2.73;;;1.60;;
37425;SDS011;23285;50.180;7.036;2023-02-27T04:12:17;3.20;;;1.50;;
37425;SDS011;23285;50.180;7.036;2023-02-27T04:15:21;6.87;;;4.60;;
37425;SDS011;23285;50.180;7.036;2023-02-27T04:18:16;7.57;;;2.80;;
37425;SDS011;23285;50.180;7.036;2023-02-27T04:21:09;3.27;;;2.40;;
37425;SDS011;23285;50.180;7.036;2023-02-27T04:24:04;7.30;;;2.17;;
37425;SDS011;23285;50.180;7.036;2023-02-27T04:26:58;3.30;;;2.00;;
37425;SDS011;23285;50.180;7.036;2023-02-27T04:29:52;2.17;;;1.70;;
37425;SDS011;23285;50.180;7.036;2023-02-27T04:32:43;2.07;;;1.83;;
37425;SDS011;23285;50.180;7.036;2023-02-27T04:35:37;3.23;;;1.70;;
37425;SDS011;23285;50.180;7.036;2023-02-27T04:38:31;1.43;;;1.30;;
37425;SDS011;23285;50.180;7.036;2023-02-27T04:41:20;3.03;;;1.60;;
37425;SDS011;23285;50.180;7.036;2023-02-27T04:44:08;3.67;;;1.40;;
37425;SDS011;23285;50.180;7.036;2023-02-27T04:46:55;17.27;;;10.03;;
37425;SDS011;23285;50.180;7.036;2023-02-27T04:49:44;6.10;;;3.60;;
37425;SDS011;23285;50.180;7.036;2023-02-27T04:52:35;2.53;;;1.93;;
37425;SDS011;23285;50.180;7.036;2023-02-27T04:55:27;2.07;;;1.60;;
37425;SDS011;23285;50.180;7.036;2023-02-27T04:58:17;3.03;;;2.33;;
37425;SDS011;23285;50.180;7.036;2023-02-27T05:01:08;4.77;;;4.20;;
37425;SDS011;23285;50.180;7.036;2023-02-27T05:03:56;9.83;;;7.73;;
37425;SDS011;23285;50.180;7.036;2023-02-27T05:06:43;11.13;;;8.97;;
37425;SDS011;23285;50.180;7.036;2023-02-27T05:09:32;9.10;;;7.73;;
37425;SDS011;23285;50.180;7.036;2023-02-27T05:12:27;13.73;;;10.03;;
37425;SDS011;23285;50.180;7.036;2023-02-27T05:15:16;5.87;;;5.23;;
37425;SDS011;23285;50.180;7.036;2023-02-27T05:18:09;9.73;;;8.50;;
37425;SDS011;23285;50.180;7.036;2023-02-27T05:20:59;8.70;;;7.20;;
37425;SDS011;23285;50.180;7.036;2023-02-27T05:23:58;8.07;;;5.50;;
37425;SDS011;23285;50.180;7.036;2023-02-27T05:26:57;7.27;;;6.03;;
37425;SDS011;23285;50.180;7.036;2023-02-27T05:30:00;10.63;;;8.47;;
37425;SDS011;23285;50.180;7.036;2023-02-27T05:32:50;9.23;;;7.43;;
37425;SDS011;23285;50.180;7.036;2023-02-27T05:35:41;6.07;;;4.00;;
37425;SDS011;23285;50.180;7.036;2023-02-27T05:38:33;4.13;;;3.20;;
37425;SDS011;23285;50.180;7.036;2023-02-27T05:41:22;3.23;;;2.70;;
37425;SDS011;23285;50.180;7.036;2023-02-27T05:44:13;2.83;;;2.10;;
37425;SDS011;23285;50.180;7.036;2023-02-27T05:47:05;2.70;;;2.17;;
37425;SDS011;23285;50.180;7.036;2023-02-27T05:49:57;2.67;;;2.30;;
37425;SDS011;23285;50.180;7.036;2023-02-27T05:52:47;3.93;;;2.23;;
37425;SDS011;23285;50.180;7.036;2023-02-27T05:55:36;5.27;;;1.87;;
37425;SDS011;23285;50.180;7.036;2023-02-27T05:58:26;2.47;;;1.97;;
37425;SDS011;23285;50.180;7.036;2023-02-27T06:01:17;3.30;;;1.73;;
37425;SDS011;23285;50.180;7.036;2023-02-27T06:04:04;3.27;;;2.00;;
37425;SDS011;23285;50.180;7.036;2023-02-27T06:06:50;3.10;;;2.13;;
37425;SDS011;23285;50.180;7.036;2023-02-27T06:09:37;5.37;;;1.87;;
37425;SDS011;23285;50.180;7.036;2023-02-27T06:12:23;2.73;;;1.90;;
37425;SDS011;23285;50.180;7.036;2023-02-27T06:15:10;5.23;;;1.70;;
37425;SDS011;23285;50.180;7.036;2023-02-27T06:17:57;1.93;;;1.80;;
37425;SDS011;23285;50.180;7.036;2023-02-27T06:20:44;2.00;;;1.70;;
37425;SDS011;23285;50.180;7.036;2023-02-27T06:23:31;4.17;;;1.93;;
37425;SDS011;23285;50.180;7.036;2023-02-27T06:26:17;3.60;;;2.00;;
37425;SDS011;23285;50.180;7.036;2023-02-27T06:29:03;1.87;;;1.47;;
37425;SDS011;23285;50.180;7.036;2023-02-27T06:31:49;3.60;;;1.57;;
37425;SDS011;23285;50.180;7.036;2023-02-27T06:34:36;2.93;;;1.50;;
37425;SDS011;23285;50.180;7.036;2023-02-27T06:37:24;2.47;;;1.70;;
37425;SDS011;23285;50.180;7.036;2023-02-27T06:40:10;1.90;;;1.60;;
37425;SDS011;23285;50.180;7.036;2023-02-27T06:42:57;3.00;;;1.70;;
37425;SDS011;23285;50.180;7.036;2023-02-27T06:45:43;3.87;;;1.60;;
37425;SDS011;23285;50.180;7.036;2023-02-27T06:48:29;2.20;;;1.60;;
37425;SDS011;23285;50.180;7.036;2023-02-27T06:51:16;4.30;;;2.47;;
37425;SDS011;23285;50.180;7.036;2023-02-27T06:54:04;2.97;;;2.23;;
37425;SDS011;23285;50.180;7.036;2023-02-27T06:56:51;4.93;;;1.90;;
37425;SDS011;23285;50.180;7.036;2023-02-27T06:59:37;4.73;;;1.90;;
37425;SDS011;23285;50.180;7.036;2023-02-27T07:02:24;2.00;;;1.73;;
37425;SDS011;23285;50.180;7.036;2023-02-27T07:05:10;3.57;;;1.50;;
37425;SDS011;23285;50.180;7.036;2023-02-27T07:07:56;1.67;;;1.57;;
37425;SDS011;23285;50.180;7.036;2023-02-27T07:10:44;3.57;;;1.80;;
37425;SDS011;23285;50.180;7.036;2023-02-27T07:13:32;4.53;;;2.20;;
37425;SDS011;23285;50.180;7.036;2023-02-27T07:16:19;3.30;;;1.90;;
37425;SDS011;23285;50.180;7.036;2023-02-27T07:19:05;6.70;;;4.50;;
37425;SDS011;23285;50.180;7.036;2023-02-27T07:21:52;8.83;;;5.40;;
37425;SDS011;23285;50.180;7.036;2023-02-27T07:24:38;2.03;;;1.80;;
37425;SDS011;23285;50.180;7.036;2023-02-27T07:27:26;3.90;;;2.40;;
37425;SDS011;23285;50.180;7.036;2023-02-27T07:30:13;5.63;;;3.50;;
37425;SDS011;23285;50.180;7.036;2023-02-27T07:32:59;7.20;;;3.80;;
37425;SDS011;23285;50.180;7.036;2023-02-27T07:35:46;5.80;;;3.90;;
37425;SDS011;23285;50.180;7.036;2023-02-27T07:38:33;10.90;;;6.07;;
37425;SDS011;23285;50.180;7.036;2023-02-27T07:41:20;8.77;;;5.67;;
37425;SDS011;23285;50.180;7.036;2023-02-27T07:44:08;3.67;;;2.47;;
37425;SDS011;23285;50.180;7.036;2023-02-27T07:46:54;4.50;;;1.90;;
37425;SDS011;23285;50.180;7.036;2023-02-27T07:49:41;3.33;;;2.23;;
37425;SDS011;23285;50.180;7.036;2023-02-27T07:52:27;7.27;;;5.43;;
37425;SDS011;23285;50.180;7.036;2023-02-27T07:55:13;3.43;;;1.80;;
37425;SDS011;23285;50.180;7.036;2023-02-27T07:58:00;5.40;;;2.83;;
37425;SDS011;23285;50.180;7.036;2023-02-27T08:00:48;7.33;;;5.27;;
37425;SDS011;23285;50.180;7.036;2023-02-27T08:03:34;17.20;;;10.60;;
37425;SDS011;23285;50.180;7.036;2023-02-27T08:06:20;9.90;;;7.10;;
37425;SDS011;23285;50.180;7.036;2023-02-27T08:09:07;13.57;;;8.97;;
37425;SDS011;23285;50.180;7.036;2023-02-27T08:11:55;10.13;;;6.00;;
37425;SDS011;23285;50.180;7.036;2023-02-27T08:14:41;4.00;;;3.03;;
37425;SDS011;23285;50.180;7.036;2023-02-27T08:17:29;2.57;;;1.90;;
37425;SDS011;23285;50.180;7.036;2023-02-27T08:20:15;4.43;;;4.03;;
37425;SDS011;23285;50.180;7.036;2023-02-27T08:23:05;10.03;;;6.37;;
37425;SDS011;23285;50.180;7.036;2023-02-27T08:25:53;10.90;;;6.57;;
37425;SDS011;23285;50.180;7.036;2023-02-27T08:28:41;10.83;;;6.67;;
37425;SDS011;23285;50.180;7.036;2023-02-27T08:31:27;4.50;;;3.60;;
37425;SDS011;23285;50.180;7.036;2023-02-27T08:34:15;10.93;;;6.97;;
37425;SDS011;23285;50.180;7.036;2023-02-27T08:37:02;8.57;;;5.57;;
37425;SDS011;23285;50.180;7.036;2023-02-27T08:39:48;10.60;;;6.87;;
37425;SDS011;23285;50.180;7.036;2023-02-27T08:42:35;6.57;;;4.20;;
37425;SDS011;23285;50.180;7.036;2023-02-27T08:45:22;12.63;;;8.00;;
37425;SDS011;23285;50.180;7.036;2023-02-27T08:48:09;15.83;;;12.20;;
37425;SDS011;23285;50.180;7.036;2023-02-27T08:51:00;3.90;;;2.57;;
37425;SDS011;23285;50.180;7.036;2023-02-27T08:53:46;7.37;;;4.90;;
37425;SDS011;23285;50.180;7.036;2023-02-27T08:56:33;4.77;;;3.47;;
37425;SDS011;23285;50.180;7.036;2023-02-27T08:59:20;3.40;;;2.37;;
37425;SDS011;23285;50.180;7.036;2023-02-27T09:02:06;4.87;;;1.87;;
37425;SDS011;23285;50.180;7.036;2023-02-27T09:04:54;3.53;;;2.57;;
37425;SDS011;23285;50.180;7.036;2023-02-27T09:07:41;5.10;;;1.87;;
37425;SDS011;23285;50.180;7.036;2023-02-27T09:10:28;6.07;;;3.33;;
37425;SDS011;23285;50.180;7.036;2023-02-27T09:13:15;10.43;;;6.27;;
37425;SDS011;23285;50.180;7.036;2023-02-27T09:16:02;8.13;;;3.67;;
37425;SDS011;23285;50.180;7.036;2023-02-27T09:18:48;3.93;;;2.47;;
37425;SDS011;23285;50.180;7.036;2023-02-27T09:21:35;4.33;;;2.90;;
37425;SDS011;23285;50.180;7.036;2023-02-27T09:24:23;7.80;;;4.47;;
37425;SDS011;23285;50.180;7.036;2023-02-27T09:27:09;3.17;;;2.33;;
37425;SDS011;23285;50.180;7.036;2023-02-27T09:29:55;3.47;;;1.67;;
37425;SDS011;23285;50.180;7.036;2023-02-27T09:32:43;2.03;;;1.73;;
37425;SDS011;23285;50.180;7.036;2023-02-27T09:35:29;3.17;;;1.60;;
37425;SDS011;23285;50.180;7.036;2023-02-27T09:38:15;3.73;;;3.30;;
37425;SDS011;23285;50.180;7.036;2023-02-27T09:41:04;2.60;;;2.13;;
37425;SDS011;23285;50.180;7.036;2023-02-27T09:43:50;2.67;;;2.47;;
37425;SDS011;23285;50.180;7.036;2023-02-27T09:46:37;8.17;;;2.23;;
37425;SDS011;23285;50.180;7.036;2023-02-27T09:49:23;2.17;;;1.97;;
37425;SDS011;23285;50.180;7.036;2023-02-27T09:52:16;3.97;;;2.30;;
37425;SDS011;23285;50.180;7.036;2023-02-27T09:55:03;2.53;;;1.90;;
37425;SDS011;23285;50.180;7.036;2023-02-27T09:57:56;2.73;;;1.90;;
37425;SDS011;23285;50.180;7.036;2023-02-27T10:00:50;2.97;;;2.10;;
37425;SDS011;23285;50.180;7.036;2023-02-27T10:06:54;2.20;;;2.00;;
37425;SDS011;23285;50.180;7.036;2023-02-27T10:09:50;4.03;;;1.90;;
37425;SDS011;23285;50.180;7.036;2023-02-27T10:12:50;3.07;;;2.00;;
37425;SDS011;23285;50.180;7.036;2023-02-27T10:15:51;2.00;;;1.80;;
37425;SDS011;23285;50.180;7.036;2023-02-27T10:18:41;3.13;;;2.00;;
37425;SDS011;23285;50.180;7.036;2023-02-27T10:21:30;5.27;;;2.27;;
37425;SDS011;23285;50.180;7.036;2023-02-27T10:24:21;3.43;;;2.00;;
37425;SDS011;23285;50.180;7.036;2023-02-27T10:27:13;3.77;;;2.30;;
37425;SDS011;23285;50.180;7.036;2023-02-27T10:30:13;2.83;;;2.10;;
37425;SDS011;23285;50.180;7.036;2023-02-27T10:33:05;2.23;;;1.60;;
37425;SDS011;23285;50.180;7.036;2023-02-27T10:35:51;2.07;;;1.77;;
37425;SDS011;23285;50.180;7.036;2023-02-27T10:38:39;3.20;;;1.60;;
37425;SDS011;23285;50.180;7.036;2023-02-27T10:41:28;2.13;;;1.80;;
37425;SDS011;23285;50.180;7.036;2023-02-27T10:44:15;3.50;;;1.93;;
37425;SDS011;23285;50.180;7.036;2023-02-27T10:47:03;3.50;;;1.90;;
37425;SDS011;23285;50.180;7.036;2023-02-27T10:49:50;1.97;;;1.63;;
37425;SDS011;23285;50.180;7.036;2023-02-27T10:52:46;1.40;;;1.30;;
37425;SDS011;23285;50.180;7.036;2023-02-27T10:55:34;2.10;;;1.30;;
37425;SDS011;23285;50.180;7.036;2023-02-27T10:58:22;1.40;;;1.30;;
37425;SDS011;23285;50.180;7.036;2023-02-27T11:01:09;1.23;;;1.20;;
37425;SDS011;23285;50.180;7.036;2023-02-27T11:03:58;1.33;;;1.23;;
37425;SDS011;23285;50.180;7.036;2023-02-27T11:06:45;1.33;;;1.20;;
37425;SDS011;23285;50.180;7.036;2023-02-27T11:09:37;1.23;;;1.00;;
37425;SDS011;23285;50.180;7.036;2023-02-27T11:12:25;2.43;;;1.00;;
37425;SDS011;23285;50.180;7.036;2023-02-27T11:15:22;1.40;;;1.13;;
37425;SDS011;23285;50.180;7.036;2023-02-27T11:21:20;1.50;;;1.17;;
37425;SDS011;23285;50.180;7.036;2023-02-27T11:24:17;5.07;;;1.30;;
37425;SDS011;23285;50.180;7.036;2023-02-27T11:27:16;3.00;;;1.33;;
37425;SDS011;23285;50.180;7.036;2023-02-27T11:30:06;1.63;;;1.37;;
37425;SDS011;23285;50.180;7.036;2023-02-27T11:33:09;1.50;;;1.40;;
37425;SDS011;23285;50.180;7.036;2023-02-27T11:36:03;1.90;;;1.10;;
37425;SDS011;23285;50.180;7.036;2023-02-27T11:38:51;2.40;;;1.10;;
37425;SDS011;23285;50.180;7.036;2023-02-27T11:41:38;2.10;;;1.20;;
37425;SDS011;23285;50.180;7.036;2023-02-27T11:44:28;6.00;;;3.10;;
37425;SDS011;23285;50.180;7.036;2023-02-27T11:47:15;12.47;;;5.93;;
37425;SDS011;23285;50.180;7.036;2023-02-27T11:50:11;12.57;;;6.57;;
37425;SDS011;23285;50.180;7.036;2023-02-27T11:53:18;7.03;;;3.20;;
37425;SDS011;23285;50.180;7.036;2023-02-27T11:56:38;11.10;;;5.10;;
37425;SDS011;23285;50.180;7.036;2023-02-27T11:59:31;8.43;;;4.17;;
37425;SDS011;23285;50.180;7.036;2023-02-27T12:02:28;11.27;;;4.60;;
37425;SDS011;23285;50.180;7.036;2023-02-27T12:05:17;11.80;;;4.20;;
37425;SDS011;23285;50.180;7.036;2023-02-27T12:08:05;15.07;;;6.20;;
37425;SDS011;23285;50.180;7.036;2023-02-27T12:10:53;16.90;;;9.13;;
37425;SDS011;23285;50.180;7.036;2023-02-27T12:13:44;11.77;;;6.00;;
37425;SDS011;23285;50.180;7.036;2023-02-27T12:16:36;16.37;;;8.23;;
37425;SDS011;23285;50.180;7.036;2023-02-27T12:19:25;10.37;;;6.33;;
37425;SDS011;23285;50.180;7.036;2023-02-27T12:22:18;5.53;;;1.67;;
37425;SDS011;23285;50.180;7.036;2023-02-27T12:25:06;9.60;;;5.97;;
37425;SDS011;23285;50.180;7.036;2023-02-27T12:27:59;8.80;;;5.63;;
37425;SDS011;23285;50.180;7.036;2023-02-27T12:30:55;5.07;;;3.73;;
37425;SDS011;23285;50.180;7.036;2023-02-27T12:33:47;4.33;;;3.17;;
37425;SDS011;23285;50.180;7.036;2023-02-27T12:36:37;6.67;;;4.73;;
37425;SDS011;23285;50.180;7.036;2023-02-27T12:39:24;2.53;;;2.03;;
37425;SDS011;23285;50.180;7.036;2023-02-27T12:42:21;5.03;;;2.77;;
37425;SDS011;23285;50.180;7.036;2023-02-27T12:49:05;1.50;;;1.23;;
37425;SDS011;23285;50.180;7.036;2023-02-27T12:52:17;1.93;;;1.20;;
37425;SDS011;23285;50.180;7.036;2023-02-27T12:55:05;4.43;;;1.37;;
37425;SDS011;23285;50.180;7.036;2023-02-27T12:58:08;2.30;;;1.37;;
37425;SDS011;23285;50.180;7.036;2023-02-27T13:01:04;1.83;;;1.70;;
37425;SDS011;23285;50.180;7.036;2023-02-27T13:03:59;2.83;;;2.40;;
37425;SDS011;23285;50.180;7.036;2023-02-27T13:06:50;3.73;;;1.90;;
37425;SDS011;23285;50.180;7.036;2023-02-27T13:09:43;1.83;;;1.70;;
37425;SDS011;23285;50.180;7.036;2023-02-27T13:12:32;5.40;;;3.83;;
37425;SDS011;23285;50.180;7.036;2023-02-27T13:15:20;3.30;;;2.40;;
37425;SDS011;23285;50.180;7.036;2023-02-27T13:18:27;7.27;;;5.70;;
37425;SDS011;23285;50.180;7.036;2023-02-27T13:21:23;34.00;;;20.47;;
37425;SDS011;23285;50.180;7.036;2023-02-27T13:24:23;34.80;;;19.30;;
37425;SDS011;23285;50.180;7.036;2023-02-27T13:27:13;46.07;;;28.17;;
37425;SDS011;23285;50.180;7.036;2023-02-27T13:30:12;39.23;;;26.00;;
37425;SDS011;23285;50.180;7.036;2023-02-27T13:33:00;24.00;;;17.53;;
37425;SDS011;23285;50.180;7.036;2023-02-27T13:36:01;24.13;;;17.13;;
37425;SDS011;23285;50.180;7.036;2023-02-27T13:38:52;6.63;;;4.07;;
37425;SDS011;23285;50.180;7.036;2023-02-27T13:41:39;3.87;;;1.60;;
37425;SDS011;23285;50.180;7.036;2023-02-27T13:47:40;1.97;;;1.87;;
37425;SDS011;23285;50.180;7.036;2023-02-27T13:50:49;4.10;;;1.90;;
37425;SDS011;23285;50.180;7.036;2023-02-27T13:53:36;1.40;;;0.90;;
37425;SDS011;23285;50.180;7.036;2023-02-27T13:56:25;2.90;;;1.10;;
37425;SDS011;23285;50.180;7.036;2023-02-27T13:59:11;3.00;;;1.03;;
37425;SDS011;23285;50.180;7.036;2023-02-27T14:02:05;2.77;;;1.20;;
37425;SDS011;23285;50.180;7.036;2023-02-27T14:05:16;1.00;;;0.90;;
37425;SDS011;23285;50.180;7.036;2023-02-27T14:08:13;2.03;;;1.13;;
37425;SDS011;23285;50.180;7.036;2023-02-27T14:11:09;2.33;;;1.30;;
37425;SDS011;23285;50.180;7.036;2023-02-27T14:14:05;0.70;;;0.70;;
37425;SDS011;23285;50.180;7.036;2023-02-27T14:16:53;3.00;;;2.00;;
37425;SDS011;23285;50.180;7.036;2023-02-27T14:19:48;9.90;;;6.07;;
37425;SDS011;23285;50.180;7.036;2023-02-27T14:25:56;9.60;;;4.80;;
37425;SDS011;23285;50.180;7.036;2023-02-27T14:28:49;5.87;;;3.07;;
37425;SDS011;23285;50.180;7.036;2023-02-27T14:31:42;4.73;;;3.00;;
37425;SDS011;23285;50.180;7.036;2023-02-27T14:34:29;8.60;;;5.43;;
37425;SDS011;23285;50.180;7.036;2023-02-27T14:37:17;5.53;;;3.70;;
37425;SDS011;23285;50.180;7.036;2023-02-27T14:40:14;7.40;;;3.27;;
37425;SDS011;23285;50.180;7.036;2023-02-27T14:43:08;5.17;;;1.53;;
37425;SDS011;23285;50.180;7.036;2023-02-27T14:46:05;6.67;;;2.20;;
37425;SDS011;23285;50.180;7.036;2023-02-27T14:48:55;3.00;;;1.60;;
37425;SDS011;23285;50.180;7.036;2023-02-27T14:51:42;4.20;;;1.60;;
37425;SDS011;23285;50.180;7.036;2023-02-27T14:54:29;3.13;;;2.80;;
37425;SDS011;23285;50.180;7.036;2023-02-27T14:57:15;4.57;;;3.07;;
37425;SDS011;23285;50.180;7.036;2023-02-27T15:00:03;3.03;;;2.20;;
37425;SDS011;23285;50.180;7.036;2023-02-27T15:02:51;2.47;;;2.23;;
37425;SDS011;23285;50.180;7.036;2023-02-27T15:05:38;3.80;;;1.47;;
37425;SDS011;23285;50.180;7.036;2023-02-27T15:08:26;1.77;;;1.67;;
37425;SDS011;23285;50.180;7.036;2023-02-27T15:11:16;3.60;;;2.63;;
37425;SDS011;23285;50.180;7.036;2023-02-27T15:14:04;2.40;;;1.97;;
37425;SDS011;23285;50.180;7.036;2023-02-27T15:16:52;3.10;;;1.50;;
37425;SDS011;23285;50.180;7.036;2023-02-27T15:19:44;3.73;;;1.37;;
37425;SDS011;23285;50.180;7.036;2023-02-27T15:22:36;1.90;;;1.50;;
37425;SDS011;23285;50.180;7.036;2023-02-27T15:25:27;3.80;;;1.30;;
37425;SDS011;23285;50.180;7.036;2023-02-27T15:28:18;2.40;;;2.07;;
37425;SDS011;23285;50.180;7.036;2023-02-27T15:31:08;2.43;;;2.23;;
37425;SDS011;23285;50.180;7.036;2023-02-27T15:34:02;5.33;;;3.43;;
37425;SDS011;23285;50.180;7.036;2023-02-27T15:36:49;4.97;;;3.97;;
37425;SDS011;23285;50.180;7.036;2023-02-27T15:39:39;7.83;;;4.67;;
37425;SDS011;23285;50.180;7.036;2023-02-27T15:42:26;5.57;;;3.53;;
37425;SDS011;23285;50.180;7.036;2023-02-27T15:45:15;3.73;;;3.10;;
37425;SDS011;23285;50.180;7.036;2023-02-27T15:48:03;4.57;;;4.17;;
37425;SDS011;23285;50.180;7.036;2023-02-27T15:50:51;4.93;;;4.33;;
37425;SDS011;23285;50.180;7.036;2023-02-27T15:53:39;3.60;;;3.00;;
37425;SDS011;23285;50.180;7.036;2023-02-27T15:56:31;3.27;;;2.93;;
37425;SDS011;23285;50.180;7.036;2023-02-27T15:59:21;4.40;;;3.70;;
37425;SDS011;23285;50.180;7.036;2023-02-27T16:02:12;5.20;;;4.40;;
37425;SDS011;23285;50.180;7.036;2023-02-27T16:05:02;12.27;;;8.43;;
37425;SDS011;23285;50.180;7.036;2023-02-27T16:07:49;4.67;;;3.77;;
37425;SDS011;23285;50.180;7.036;2023-02-27T16:10:38;6.53;;;3.17;;
37425;SDS011;23285;50.180;7.036;2023-02-27T16:13:36;8.87;;;6.93;;
37425;SDS011;23285;50.180;7.036;2023-02-27T16:16:25;5.50;;;4.00;;
37425;SDS011;23285;50.180;7.036;2023-02-27T16:19:14;8.60;;;6.80;;
37425;SDS011;23285;50.180;7.036;2023-02-27T16:22:02;4.97;;;3.60;;
37425;SDS011;23285;50.180;7.036;2023-02-27T16:24:50;6.63;;;4.27;;
37425;SDS011;23285;50.180;7.036;2023-02-27T16:27:37;5.23;;;3.67;;
37425;SDS011;23285;50.180;7.036;2023-02-27T16:30:26;4.57;;;3.83;;
37425;SDS011;23285;50.180;7.036;2023-02-27T16:33:13;5.17;;;3.87;;
37425;SDS011;23285;50.180;7.036;2023-02-27T16:36:13;2.13;;;1.90;;
37425;SDS011;23285;50.180;7.036;2023-02-27T16:39:01;3.70;;;1.30;;
37425;SDS011;23285;50.180;7.036;2023-02-27T16:41:50;2.17;;;1.63;;
37425;SDS011;23285;50.180;7.036;2023-02-27T16:44:37;1.20;;;1.10;;
37425;SDS011;23285;50.180;7.036;2023-02-27T16:47:25;1.67;;;1.10;;
37425;SDS011;23285;50.180;7.036;2023-02-27T16:50:14;1.93;;;1.53;;
37425;SDS011;23285;50.180;7.036;2023-02-27T16:53:03;1.90;;;1.50;;
37425;SDS011;23285;50.180;7.036;2023-02-27T16:55:49;1.87;;;1.60;;
37425;SDS011;23285;50.180;7.036;2023-02-27T16:58:38;2.53;;;1.63;;
37425;SDS011;23285;50.180;7.036;2023-02-27T17:01:24;4.53;;;1.43;;
37425;SDS011;23285;50.180;7.036;2023-02-27T17:04:12;1.90;;;1.50;;
37425;SDS011;23285;50.180;7.036;2023-02-27T17:06:59;2.23;;;1.50;;
37425;SDS011;23285;50.180;7.036;2023-02-27T17:09:46;2.30;;;1.70;;
37425;SDS011;23285;50.180;7.036;2023-02-27T17:12:33;3.20;;;1.37;;
37425;SDS011;23285;50.180;7.036;2023-02-27T17:15:20;5.80;;;3.10;;
37425;SDS011;23285;50.180;7.036;2023-02-27T17:18:06;2.57;;;1.67;;
37425;SDS011;23285;50.180;7.036;2023-02-27T17:20:54;1.77;;;1.60;;
37425;SDS011;23285;50.180;7.036;2023-02-27T17:23:44;2.73;;;1.60;;